KELY

Ely Arpt / Yelland Field / Airport

Ely, Nevada, USA
METAR KELY 210353Z AUTO 33007KT 10SM FEW032 BKN050 BKN060 M08/M10 A2999 RMK AO2 SLP193 T10781100
Observed Flight Rules
Jan-21 @ 03:53 UTC (57 minutes ago) Visual Flight Rules
Wind Visibility Clouds
330° at 7 knots 10 miles
  • Few at 3,200' AGL
  • Broken at 5,000' AGL
  • Broken at 6,000' AGL
Temperatures Readings
Current -8°C / 18°F
Dewpoint -10°C / 14°F
Humidity 86%
Altimeter 29.99" Hg
Pressure 1019.3 hPa
Elevation 1906
METAR KELY 210353Z AUTO 33007KT 10SM FEW032 BKN050 BKN060 M08/M10 A2999 RMK AO2 SLP193 T10781100
Observed Flight Rules
Jan-21 @ 03:53 UTC
(57 minutes ago)
VFR
Wind Visibility
330° at 7 knots 10 miles
Clouds
  • Few at 3,200' AGL
  • Broken at 5,000' AGL
  • Broken at 6,000' AGL
Temperature Dewpoint
-8°C / 18°F -10°C / 14°F
Humidity Altimeter Pressure
86% 29.99" Hg 1019.3 hPa